sensor_id;sensor_type;location;lat;lon;timestamp;P1;durP1;ratioP1;P2;durP2;ratioP2
23123;SDS011;11731;48.592;8.858;2024-03-08T00:01:15;19.27;;;12.20;;
23123;SDS011;11731;48.592;8.858;2024-03-08T00:03:41;18.77;;;11.53;;
23123;SDS011;11731;48.592;8.858;2024-03-08T00:06:10;21.03;;;12.43;;
23123;SDS011;11731;48.592;8.858;2024-03-08T00:08:37;17.80;;;11.80;;
23123;SDS011;11731;48.592;8.858;2024-03-08T00:11:04;16.53;;;11.50;;
23123;SDS011;11731;48.592;8.858;2024-03-08T00:13:31;19.23;;;10.27;;
23123;SDS011;11731;48.592;8.858;2024-03-08T00:15:58;21.83;;;12.33;;
23123;SDS011;11731;48.592;8.858;2024-03-08T00:18:24;18.53;;;11.77;;
23123;SDS011;11731;48.592;8.858;2024-03-08T00:20:51;17.27;;;10.90;;
23123;SDS011;11731;48.592;8.858;2024-03-08T00:23:20;19.43;;;12.17;;
23123;SDS011;11731;48.592;8.858;2024-03-08T00:25:46;19.27;;;11.90;;
23123;SDS011;11731;48.592;8.858;2024-03-08T00:28:16;20.43;;;11.47;;
23123;SDS011;11731;48.592;8.858;2024-03-08T00:30:44;20.83;;;12.33;;
23123;SDS011;11731;48.592;8.858;2024-03-08T00:33:14;17.70;;;11.47;;
23123;SDS011;11731;48.592;8.858;2024-03-08T00:35:41;19.80;;;12.10;;
23123;SDS011;11731;48.592;8.858;2024-03-08T00:38:07;22.20;;;13.10;;
23123;SDS011;11731;48.592;8.858;2024-03-08T00:40:37;21.50;;;13.10;;
23123;SDS011;11731;48.592;8.858;2024-03-08T00:43:09;22.17;;;12.43;;
23123;SDS011;11731;48.592;8.858;2024-03-08T00:45:54;18.97;;;12.60;;
23123;SDS011;11731;48.592;8.858;2024-03-08T00:48:24;23.80;;;12.50;;
23123;SDS011;11731;48.592;8.858;2024-03-08T00:53:45;19.53;;;12.17;;
23123;SDS011;11731;48.592;8.858;2024-03-08T00:56:15;20.40;;;12.43;;
23123;SDS011;11731;48.592;8.858;2024-03-08T00:58:42;22.50;;;11.97;;
23123;SDS011;11731;48.592;8.858;2024-03-08T01:01:17;22.27;;;12.93;;
23123;SDS011;11731;48.592;8.858;2024-03-08T01:04:15;20.50;;;12.60;;
23123;SDS011;11731;48.592;8.858;2024-03-08T01:09:55;23.17;;;13.23;;
23123;SDS011;11731;48.592;8.858;2024-03-08T01:12:24;22.37;;;13.40;;
23123;SDS011;11731;48.592;8.858;2024-03-08T01:14:51;22.43;;;12.63;;
23123;SDS011;11731;48.592;8.858;2024-03-08T01:17:20;19.37;;;11.80;;
23123;SDS011;11731;48.592;8.858;2024-03-08T01:19:47;22.87;;;12.83;;
23123;SDS011;11731;48.592;8.858;2024-03-08T01:22:14;20.73;;;12.50;;
23123;SDS011;11731;48.592;8.858;2024-03-08T01:24:46;21.20;;;12.57;;
23123;SDS011;11731;48.592;8.858;2024-03-08T01:27:13;24.77;;;12.87;;
23123;SDS011;11731;48.592;8.858;2024-03-08T01:29:42;22.73;;;13.47;;
23123;SDS011;11731;48.592;8.858;2024-03-08T01:32:15;22.57;;;12.17;;
23123;SDS011;11731;48.592;8.858;2024-03-08T01:35:08;23.63;;;13.07;;
23123;SDS011;11731;48.592;8.858;2024-03-08T01:37:48;20.40;;;12.10;;
23123;SDS011;11731;48.592;8.858;2024-03-08T01:40:15;21.27;;;12.33;;
23123;SDS011;11731;48.592;8.858;2024-03-08T01:42:42;22.37;;;13.00;;
23123;SDS011;11731;48.592;8.858;2024-03-08T01:45:11;21.73;;;12.43;;
23123;SDS011;11731;48.592;8.858;2024-03-08T01:47:38;20.33;;;12.23;;
23123;SDS011;11731;48.592;8.858;2024-03-08T01:50:09;23.33;;;13.27;;
23123;SDS011;11731;48.592;8.858;2024-03-08T01:52:36;21.43;;;13.70;;
23123;SDS011;11731;48.592;8.858;2024-03-08T01:55:19;22.00;;;11.57;;
23123;SDS011;11731;48.592;8.858;2024-03-08T01:57:46;24.67;;;14.43;;
23123;SDS011;11731;48.592;8.858;2024-03-08T02:00:26;24.27;;;12.47;;
23123;SDS011;11731;48.592;8.858;2024-03-08T02:02:55;23.67;;;12.90;;
23123;SDS011;11731;48.592;8.858;2024-03-08T02:05:23;21.30;;;12.77;;
23123;SDS011;11731;48.592;8.858;2024-03-08T02:07:50;23.73;;;12.57;;
23123;SDS011;11731;48.592;8.858;2024-03-08T02:10:17;27.93;;;14.27;;
23123;SDS011;11731;48.592;8.858;2024-03-08T02:13:23;26.73;;;14.03;;
23123;SDS011;11731;48.592;8.858;2024-03-08T02:15:51;27.73;;;13.30;;
23123;SDS011;11731;48.592;8.858;2024-03-08T02:18:19;27.27;;;14.73;;
23123;SDS011;11731;48.592;8.858;2024-03-08T02:20:48;22.57;;;13.20;;
23123;SDS011;11731;48.592;8.858;2024-03-08T02:23:16;23.80;;;13.43;;
23123;SDS011;11731;48.592;8.858;2024-03-08T02:25:43;22.20;;;12.30;;
23123;SDS011;11731;48.592;8.858;2024-03-08T02:28:12;26.70;;;13.57;;
23123;SDS011;11731;48.592;8.858;2024-03-08T02:30:40;27.87;;;13.67;;
23123;SDS011;11731;48.592;8.858;2024-03-08T02:33:07;24.37;;;13.07;;
23123;SDS011;11731;48.592;8.858;2024-03-08T02:35:37;23.23;;;12.93;;
23123;SDS011;11731;48.592;8.858;2024-03-08T02:38:33;26.97;;;13.17;;
23123;SDS011;11731;48.592;8.858;2024-03-08T02:41:00;25.20;;;13.27;;
23123;SDS011;11731;48.592;8.858;2024-03-08T02:43:28;22.37;;;13.47;;
23123;SDS011;11731;48.592;8.858;2024-03-08T02:45:55;20.83;;;13.47;;
23123;SDS011;11731;48.592;8.858;2024-03-08T02:48:22;26.83;;;14.37;;
23123;SDS011;11731;48.592;8.858;2024-03-08T02:50:49;25.27;;;13.57;;
23123;SDS011;11731;48.592;8.858;2024-03-08T02:53:17;23.47;;;13.10;;
23123;SDS011;11731;48.592;8.858;2024-03-08T02:55:51;24.83;;;14.50;;
23123;SDS011;11731;48.592;8.858;2024-03-08T02:58:17;24.33;;;13.27;;
23123;SDS011;11731;48.592;8.858;2024-03-08T03:00:44;23.53;;;13.83;;
23123;SDS011;11731;48.592;8.858;2024-03-08T03:12:04;26.13;;;14.27;;
23123;SDS011;11731;48.592;8.858;2024-03-08T03:14:34;25.00;;;13.77;;
23123;SDS011;11731;48.592;8.858;2024-03-08T03:17:05;24.23;;;13.13;;
23123;SDS011;11731;48.592;8.858;2024-03-08T03:19:35;23.50;;;13.00;;
23123;SDS011;11731;48.592;8.858;2024-03-08T03:25:16;26.37;;;12.30;;
23123;SDS011;11731;48.592;8.858;2024-03-08T03:27:49;21.40;;;12.37;;
23123;SDS011;11731;48.592;8.858;2024-03-08T03:33:12;22.03;;;12.57;;
23123;SDS011;11731;48.592;8.858;2024-03-08T03:35:46;21.30;;;12.07;;
23123;SDS011;11731;48.592;8.858;2024-03-08T03:38:12;24.13;;;12.80;;
23123;SDS011;11731;48.592;8.858;2024-03-08T03:40:41;22.03;;;11.87;;
23123;SDS011;11731;48.592;8.858;2024-03-08T03:43:11;27.87;;;13.40;;
23123;SDS011;11731;48.592;8.858;2024-03-08T03:45:41;24.33;;;14.20;;
23123;SDS011;11731;48.592;8.858;2024-03-08T03:48:08;23.73;;;12.93;;
23123;SDS011;11731;48.592;8.858;2024-03-08T03:50:44;25.37;;;13.17;;
23123;SDS011;11731;48.592;8.858;2024-03-08T03:53:10;21.97;;;13.40;;
23123;SDS011;11731;48.592;8.858;2024-03-08T03:55:56;19.70;;;12.50;;
23123;SDS011;11731;48.592;8.858;2024-03-08T03:58:28;23.33;;;12.83;;
23123;SDS011;11731;48.592;8.858;2024-03-08T04:00:55;24.73;;;13.13;;
23123;SDS011;11731;48.592;8.858;2024-03-08T04:03:21;23.27;;;13.73;;
23123;SDS011;11731;48.592;8.858;2024-03-08T04:05:48;24.30;;;13.20;;
23123;SDS011;11731;48.592;8.858;2024-03-08T04:08:18;25.27;;;13.27;;
23123;SDS011;11731;48.592;8.858;2024-03-08T04:11:02;25.63;;;12.87;;
23123;SDS011;11731;48.592;8.858;2024-03-08T04:13:33;25.33;;;13.00;;
23123;SDS011;11731;48.592;8.858;2024-03-08T04:16:01;20.70;;;12.17;;
23123;SDS011;11731;48.592;8.858;2024-03-08T04:18:33;26.13;;;13.10;;
23123;SDS011;11731;48.592;8.858;2024-03-08T04:26:43;22.03;;;12.17;;
23123;SDS011;11731;48.592;8.858;2024-03-08T04:27:56;23.23;;;13.80;;
23123;SDS011;11731;48.592;8.858;2024-03-08T04:30:24;24.33;;;13.00;;
23123;SDS011;11731;48.592;8.858;2024-03-08T04:32:53;22.37;;;12.63;;
23123;SDS011;11731;48.592;8.858;2024-03-08T04:35:28;24.13;;;12.67;;
23123;SDS011;11731;48.592;8.858;2024-03-08T04:37:55;24.67;;;13.50;;
23123;SDS011;11731;48.592;8.858;2024-03-08T04:40:27;25.33;;;13.03;;
23123;SDS011;11731;48.592;8.858;2024-03-08T04:42:54;24.77;;;13.33;;
23123;SDS011;11731;48.592;8.858;2024-03-08T04:45:20;24.60;;;13.17;;
23123;SDS011;11731;48.592;8.858;2024-03-08T04:47:51;23.10;;;13.23;;
23123;SDS011;11731;48.592;8.858;2024-03-08T04:50:18;21.87;;;12.47;;
23123;SDS011;11731;48.592;8.858;2024-03-08T04:55:44;20.63;;;12.83;;
23123;SDS011;11731;48.592;8.858;2024-03-08T04:58:14;21.87;;;12.77;;
23123;SDS011;11731;48.592;8.858;2024-03-08T05:00:49;25.30;;;13.23;;
23123;SDS011;11731;48.592;8.858;2024-03-08T05:06:33;21.57;;;12.37;;
23123;SDS011;11731;48.592;8.858;2024-03-08T05:09:01;20.20;;;11.80;;
23123;SDS011;11731;48.592;8.858;2024-03-08T05:11:38;30.87;;;12.87;;
23123;SDS011;11731;48.592;8.858;2024-03-08T05:14:05;23.40;;;13.03;;
23123;SDS011;11731;48.592;8.858;2024-03-08T05:16:32;23.57;;;12.27;;
23123;SDS011;11731;48.592;8.858;2024-03-08T05:19:13;25.87;;;14.00;;
23123;SDS011;11731;48.592;8.858;2024-03-08T05:21:46;28.10;;;13.03;;
23123;SDS011;11731;48.592;8.858;2024-03-08T05:24:32;25.67;;;13.30;;
23123;SDS011;11731;48.592;8.858;2024-03-08T05:27:46;23.30;;;12.97;;
23123;SDS011;11731;48.592;8.858;2024-03-08T05:30:21;21.23;;;12.20;;
23123;SDS011;11731;48.592;8.858;2024-03-08T05:32:57;23.03;;;13.00;;
23123;SDS011;11731;48.592;8.858;2024-03-08T05:35:39;22.57;;;12.80;;
23123;SDS011;11731;48.592;8.858;2024-03-08T05:40:56;22.87;;;13.17;;
23123;SDS011;11731;48.592;8.858;2024-03-08T05:46:33;19.93;;;12.10;;
23123;SDS011;11731;48.592;8.858;2024-03-08T05:49:00;20.13;;;12.87;;
23123;SDS011;11731;48.592;8.858;2024-03-08T05:51:30;23.93;;;13.33;;
23123;SDS011;11731;48.592;8.858;2024-03-08T05:57:15;25.40;;;13.67;;
23123;SDS011;11731;48.592;8.858;2024-03-08T05:59:42;25.23;;;13.73;;
23123;SDS011;11731;48.592;8.858;2024-03-08T06:02:09;27.63;;;14.70;;
23123;SDS011;11731;48.592;8.858;2024-03-08T06:04:38;25.50;;;14.40;;
23123;SDS011;11731;48.592;8.858;2024-03-08T06:07:22;21.73;;;13.40;;
23123;SDS011;11731;48.592;8.858;2024-03-08T06:09:55;18.80;;;12.00;;
23123;SDS011;11731;48.592;8.858;2024-03-08T06:12:23;21.90;;;12.60;;
23123;SDS011;11731;48.592;8.858;2024-03-08T06:14:54;20.17;;;12.30;;
23123;SDS011;11731;48.592;8.858;2024-03-08T06:17:20;22.47;;;12.83;;
23123;SDS011;11731;48.592;8.858;2024-03-08T06:19:50;21.10;;;12.10;;
23123;SDS011;11731;48.592;8.858;2024-03-08T06:22:17;20.73;;;11.60;;
23123;SDS011;11731;48.592;8.858;2024-03-08T06:24:44;21.83;;;13.10;;
23123;SDS011;11731;48.592;8.858;2024-03-08T06:27:12;21.50;;;12.47;;
23123;SDS011;11731;48.592;8.858;2024-03-08T06:29:40;22.40;;;13.00;;
23123;SDS011;11731;48.592;8.858;2024-03-08T06:32:07;22.37;;;12.50;;
23123;SDS011;11731;48.592;8.858;2024-03-08T06:34:34;23.33;;;13.33;;
23123;SDS011;11731;48.592;8.858;2024-03-08T06:37:01;21.03;;;12.03;;
23123;SDS011;11731;48.592;8.858;2024-03-08T06:39:27;19.93;;;11.87;;
23123;SDS011;11731;48.592;8.858;2024-03-08T06:41:56;19.43;;;11.47;;
23123;SDS011;11731;48.592;8.858;2024-03-08T06:44:23;22.50;;;12.23;;
23123;SDS011;11731;48.592;8.858;2024-03-08T06:46:55;19.80;;;12.47;;
23123;SDS011;11731;48.592;8.858;2024-03-08T06:49:32;19.57;;;12.17;;
23123;SDS011;11731;48.592;8.858;2024-03-08T06:52:19;17.57;;;11.07;;
23123;SDS011;11731;48.592;8.858;2024-03-08T06:57:44;21.43;;;11.87;;
23123;SDS011;11731;48.592;8.858;2024-03-08T07:00:11;21.03;;;12.30;;
23123;SDS011;11731;48.592;8.858;2024-03-08T07:02:44;18.60;;;12.40;;
23123;SDS011;11731;48.592;8.858;2024-03-08T07:05:18;18.40;;;11.60;;
23123;SDS011;11731;48.592;8.858;2024-03-08T07:07:45;19.97;;;11.50;;
23123;SDS011;11731;48.592;8.858;2024-03-08T07:10:13;19.63;;;12.30;;
23123;SDS011;11731;48.592;8.858;2024-03-08T07:12:40;19.80;;;11.33;;
23123;SDS011;11731;48.592;8.858;2024-03-08T07:15:07;19.07;;;11.30;;
23123;SDS011;11731;48.592;8.858;2024-03-08T07:17:38;18.47;;;10.97;;
23123;SDS011;11731;48.592;8.858;2024-03-08T07:20:07;17.77;;;11.60;;
23123;SDS011;11731;48.592;8.858;2024-03-08T07:22:37;19.57;;;12.33;;
23123;SDS011;11731;48.592;8.858;2024-03-08T07:25:04;19.80;;;11.73;;
23123;SDS011;11731;48.592;8.858;2024-03-08T07:27:44;17.43;;;11.20;;
23123;SDS011;11731;48.592;8.858;2024-03-08T07:30:12;17.30;;;11.37;;
23123;SDS011;11731;48.592;8.858;2024-03-08T07:32:59;15.77;;;10.17;;
23123;SDS011;11731;48.592;8.858;2024-03-08T07:35:28;20.43;;;11.47;;
23123;SDS011;11731;48.592;8.858;2024-03-08T07:37:59;19.63;;;12.17;;
23123;SDS011;11731;48.592;8.858;2024-03-08T07:40:29;18.30;;;11.63;;
23123;SDS011;11731;48.592;8.858;2024-03-08T07:42:56;16.07;;;11.07;;
23123;SDS011;11731;48.592;8.858;2024-03-08T07:45:23;20.27;;;11.40;;
23123;SDS011;11731;48.592;8.858;2024-03-08T07:47:50;18.33;;;10.93;;
23123;SDS011;11731;48.592;8.858;2024-03-08T07:50:52;18.43;;;10.33;;
23123;SDS011;11731;48.592;8.858;2024-03-08T07:53:13;15.87;;;10.50;;
23123;SDS011;11731;48.592;8.858;2024-03-08T07:56:03;17.73;;;10.47;;
23123;SDS011;11731;48.592;8.858;2024-03-08T07:58:31;17.23;;;10.87;;
23123;SDS011;11731;48.592;8.858;2024-03-08T08:00:57;16.87;;;10.37;;
23123;SDS011;11731;48.592;8.858;2024-03-08T08:03:24;15.87;;;10.20;;
23123;SDS011;11731;48.592;8.858;2024-03-08T08:05:53;20.63;;;11.63;;
23123;SDS011;11731;48.592;8.858;2024-03-08T08:08:20;17.30;;;10.50;;
23123;SDS011;11731;48.592;8.858;2024-03-08T08:10:49;15.87;;;10.87;;
23123;SDS011;11731;48.592;8.858;2024-03-08T08:16:09;20.30;;;11.23;;
23123;SDS011;11731;48.592;8.858;2024-03-08T08:18:38;17.07;;;11.13;;
23123;SDS011;11731;48.592;8.858;2024-03-08T08:21:07;17.67;;;11.03;;
23123;SDS011;11731;48.592;8.858;2024-03-08T08:23:36;19.43;;;10.80;;
23123;SDS011;11731;48.592;8.858;2024-03-08T08:26:09;20.03;;;11.93;;
23123;SDS011;11731;48.592;8.858;2024-03-08T08:28:36;19.03;;;11.60;;
23123;SDS011;11731;48.592;8.858;2024-03-08T08:31:05;17.73;;;10.57;;
23123;SDS011;11731;48.592;8.858;2024-03-08T08:33:33;20.30;;;11.33;;
23123;SDS011;11731;48.592;8.858;2024-03-08T08:36:01;14.63;;;9.93;;
23123;SDS011;11731;48.592;8.858;2024-03-08T08:38:30;16.87;;;10.60;;
23123;SDS011;11731;48.592;8.858;2024-03-08T08:40:57;17.63;;;10.90;;
23123;SDS011;11731;48.592;8.858;2024-03-08T08:43:40;18.20;;;12.43;;
23123;SDS011;11731;48.592;8.858;2024-03-08T08:47:59;17.13;;;11.37;;
23123;SDS011;11731;48.592;8.858;2024-03-08T08:50:22;15.90;;;10.37;;
23123;SDS011;11731;48.592;8.858;2024-03-08T08:52:49;18.67;;;10.77;;
23123;SDS011;11731;48.592;8.858;2024-03-08T08:55:17;15.87;;;10.40;;
23123;SDS011;11731;48.592;8.858;2024-03-08T08:57:46;15.80;;;10.27;;
23123;SDS011;11731;48.592;8.858;2024-03-08T09:00:14;14.90;;;9.57;;
23123;SDS011;11731;48.592;8.858;2024-03-08T09:02:41;17.93;;;9.63;;
23123;SDS011;11731;48.592;8.858;2024-03-08T09:05:08;14.80;;;9.57;;
23123;SDS011;11731;48.592;8.858;2024-03-08T09:07:35;13.90;;;9.57;;
23123;SDS011;11731;48.592;8.858;2024-03-08T09:13:26;16.13;;;10.13;;
23123;SDS011;11731;48.592;8.858;2024-03-08T09:15:53;15.13;;;9.90;;
23123;SDS011;11731;48.592;8.858;2024-03-08T09:18:21;14.93;;;9.43;;
23123;SDS011;11731;48.592;8.858;2024-03-08T09:21:32;14.40;;;8.80;;
23123;SDS011;11731;48.592;8.858;2024-03-08T09:23:59;12.77;;;8.23;;
23123;SDS011;11731;48.592;8.858;2024-03-08T09:26:26;16.00;;;9.77;;
23123;SDS011;11731;48.592;8.858;2024-03-08T09:32:08;24.73;;;10.50;;
23123;SDS011;11731;48.592;8.858;2024-03-08T09:34:57;13.07;;;8.67;;
23123;SDS011;11731;48.592;8.858;2024-03-08T09:37:26;14.50;;;8.70;;
23123;SDS011;11731;48.592;8.858;2024-03-08T09:39:53;13.63;;;9.07;;
23123;SDS011;11731;48.592;8.858;2024-03-08T09:42:19;16.43;;;9.93;;
23123;SDS011;11731;48.592;8.858;2024-03-08T09:44:48;16.20;;;9.70;;
23123;SDS011;11731;48.592;8.858;2024-03-08T09:47:21;14.50;;;9.20;;
23123;SDS011;11731;48.592;8.858;2024-03-08T09:49:58;15.80;;;8.97;;
23123;SDS011;11731;48.592;8.858;2024-03-08T09:52:26;12.70;;;8.57;;
23123;SDS011;11731;48.592;8.858;2024-03-08T09:54:55;14.63;;;8.93;;
23123;SDS011;11731;48.592;8.858;2024-03-08T09:57:23;14.47;;;9.67;;
23123;SDS011;11731;48.592;8.858;2024-03-08T09:59:51;11.47;;;8.03;;
23123;SDS011;11731;48.592;8.858;2024-03-08T10:02:21;12.63;;;8.47;;
23123;SDS011;11731;48.592;8.858;2024-03-08T10:04:48;10.90;;;7.93;;
23123;SDS011;11731;48.592;8.858;2024-03-08T10:10:06;13.23;;;8.37;;
23123;SDS011;11731;48.592;8.858;2024-03-08T10:12:37;12.20;;;8.50;;
23123;SDS011;11731;48.592;8.858;2024-03-08T10:15:13;14.07;;;8.70;;
23123;SDS011;11731;48.592;8.858;2024-03-08T10:17:43;14.27;;;8.80;;
23123;SDS011;11731;48.592;8.858;2024-03-08T10:20:13;11.60;;;8.33;;
23123;SDS011;11731;48.592;8.858;2024-03-08T10:22:41;15.63;;;8.03;;
23123;SDS011;11731;48.592;8.858;2024-03-08T10:25:09;14.23;;;8.43;;
23123;SDS011;11731;48.592;8.858;2024-03-08T10:28:08;11.37;;;8.27;;
23123;SDS011;11731;48.592;8.858;2024-03-08T10:30:35;13.97;;;9.30;;
23123;SDS011;11731;48.592;8.858;2024-03-08T10:33:04;14.50;;;8.73;;
23123;SDS011;11731;48.592;8.858;2024-03-08T10:35:31;12.13;;;9.13;;
23123;SDS011;11731;48.592;8.858;2024-03-08T10:37:58;12.83;;;8.83;;
23123;SDS011;11731;48.592;8.858;2024-03-08T10:40:34;12.00;;;8.63;;
23123;SDS011;11731;48.592;8.858;2024-03-08T10:43:28;13.70;;;9.03;;
23123;SDS011;11731;48.592;8.858;2024-03-08T10:46:06;13.67;;;8.67;;
23123;SDS011;11731;48.592;8.858;2024-03-08T10:48:49;12.33;;;8.90;;
23123;SDS011;11731;48.592;8.858;2024-03-08T10:51:18;13.10;;;8.57;;
23123;SDS011;11731;48.592;8.858;2024-03-08T10:53:47;10.83;;;8.13;;
23123;SDS011;11731;48.592;8.858;2024-03-08T10:56:23;11.80;;;8.37;;
23123;SDS011;11731;48.592;8.858;2024-03-08T11:01:35;12.20;;;8.00;;
23123;SDS011;11731;48.592;8.858;2024-03-08T11:03:04;11.20;;;7.87;;
23123;SDS011;11731;48.592;8.858;2024-03-08T11:05:35;11.07;;;8.30;;
23123;SDS011;11731;48.592;8.858;2024-03-08T11:10:46;10.70;;;8.07;;
23123;SDS011;11731;48.592;8.858;2024-03-08T11:18:17;11.17;;;7.87;;
23123;SDS011;11731;48.592;8.858;2024-03-08T11:22:23;12.53;;;8.40;;
23123;SDS011;11731;48.592;8.858;2024-03-08T11:25:29;11.77;;;7.97;;
23123;SDS011;11731;48.592;8.858;2024-03-08T11:30:46;13.10;;;8.53;;
23123;SDS011;11731;48.592;8.858;2024-03-08T11:33:43;11.90;;;7.70;;
23123;SDS011;11731;48.592;8.858;2024-03-08T11:36:20;13.07;;;8.10;;
23123;SDS011;11731;48.592;8.858;2024-03-08T11:38:49;12.07;;;8.17;;
23123;SDS011;11731;48.592;8.858;2024-03-08T11:41:18;12.33;;;7.90;;
23123;SDS011;11731;48.592;8.858;2024-03-08T11:43:46;11.10;;;7.87;;
23123;SDS011;11731;48.592;8.858;2024-03-08T11:46:14;11.50;;;7.80;;
23123;SDS011;11731;48.592;8.858;2024-03-08T11:48:42;11.33;;;8.23;;
23123;SDS011;11731;48.592;8.858;2024-03-08T11:51:10;11.83;;;8.60;;
23123;SDS011;11731;48.592;8.858;2024-03-08T11:53:38;11.70;;;7.60;;
23123;SDS011;11731;48.592;8.858;2024-03-08T11:59:03;12.77;;;8.60;;
23123;SDS011;11731;48.592;8.858;2024-03-08T12:01:30;11.67;;;7.60;;
23123;SDS011;11731;48.592;8.858;2024-03-08T12:06:43;9.73;;;7.43;;
23123;SDS011;11731;48.592;8.858;2024-03-08T12:09:33;12.13;;;8.57;;
23123;SDS011;11731;48.592;8.858;2024-03-08T12:12:03;10.97;;;7.90;;
23123;SDS011;11731;48.592;8.858;2024-03-08T12:14:31;10.70;;;7.40;;
23123;SDS011;11731;48.592;8.858;2024-03-08T12:16:58;11.90;;;8.47;;
23123;SDS011;11731;48.592;8.858;2024-03-08T12:19:26;12.37;;;7.97;;
23123;SDS011;11731;48.592;8.858;2024-03-08T12:21:53;9.80;;;7.53;;
23123;SDS011;11731;48.592;8.858;2024-03-08T12:24:21;10.97;;;7.80;;
23123;SDS011;11731;48.592;8.858;2024-03-08T12:26:48;11.37;;;7.30;;
23123;SDS011;11731;48.592;8.858;2024-03-08T12:29:20;11.50;;;8.77;;
23123;SDS011;11731;48.592;8.858;2024-03-08T12:32:11;10.43;;;7.27;;
23123;SDS011;11731;48.592;8.858;2024-03-08T12:34:38;11.97;;;7.77;;
23123;SDS011;11731;48.592;8.858;2024-03-08T12:37:05;11.20;;;7.43;;
23123;SDS011;11731;48.592;8.858;2024-03-08T12:39:34;11.07;;;7.90;;
23123;SDS011;11731;48.592;8.858;2024-03-08T12:42:04;10.37;;;7.20;;
23123;SDS011;11731;48.592;8.858;2024-03-08T12:44:49;10.50;;;7.63;;
23123;SDS011;11731;48.592;8.858;2024-03-08T12:47:16;11.03;;;7.93;;
23123;SDS011;11731;48.592;8.858;2024-03-08T12:49:43;11.00;;;8.10;;
23123;SDS011;11731;48.592;8.858;2024-03-08T12:52:10;11.40;;;7.73;;
23123;SDS011;11731;48.592;8.858;2024-03-08T12:54:37;11.83;;;7.73;;
23123;SDS011;11731;48.592;8.858;2024-03-08T12:57:04;12.03;;;8.27;;
23123;SDS011;11731;48.592;8.858;2024-03-08T13:02:05;12.63;;;8.67;;
23123;SDS011;11731;48.592;8.858;2024-03-08T13:04:36;14.20;;;8.87;;
23123;SDS011;11731;48.592;8.858;2024-03-08T13:07:03;14.47;;;8.70;;
23123;SDS011;11731;48.592;8.858;2024-03-08T13:09:54;12.90;;;8.17;;
23123;SDS011;11731;48.592;8.858;2024-03-08T13:12:22;12.03;;;7.70;;
23123;SDS011;11731;48.592;8.858;2024-03-08T13:14:49;12.63;;;8.00;;
23123;SDS011;11731;48.592;8.858;2024-03-08T13:17:17;108.93;;;18.60;;
23123;SDS011;11731;48.592;8.858;2024-03-08T13:19:51;14.97;;;8.37;;
23123;SDS011;11731;48.592;8.858;2024-03-08T13:22:37;13.40;;;8.70;;
23123;SDS011;11731;48.592;8.858;2024-03-08T13:30:50;28.43;;;9.90;;
23123;SDS011;11731;48.592;8.858;2024-03-08T13:33:18;13.30;;;8.10;;
23123;SDS011;11731;48.592;8.858;2024-03-08T13:35:46;12.60;;;7.93;;
23123;SDS011;11731;48.592;8.858;2024-03-08T13:38:22;9.83;;;7.57;;
23123;SDS011;11731;48.592;8.858;2024-03-08T13:40:49;10.77;;;7.97;;
23123;SDS011;11731;48.592;8.858;2024-03-08T13:43:16;12.03;;;7.73;;
23123;SDS011;11731;48.592;8.858;2024-03-08T13:45:43;11.00;;;7.63;;
23123;SDS011;11731;48.592;8.858;2024-03-08T13:48:12;10.90;;;7.67;;
23123;SDS011;11731;48.592;8.858;2024-03-08T13:50:41;11.37;;;7.10;;
23123;SDS011;11731;48.592;8.858;2024-03-08T13:53:07;11.77;;;7.87;;
23123;SDS011;11731;48.592;8.858;2024-03-08T13:55:35;16.53;;;8.40;;
23123;SDS011;11731;48.592;8.858;2024-03-08T13:58:14;11.63;;;7.73;;
23123;SDS011;11731;48.592;8.858;2024-03-08T14:00:41;13.13;;;8.43;;
23123;SDS011;11731;48.592;8.858;2024-03-08T14:03:09;12.20;;;7.90;;
23123;SDS011;11731;48.592;8.858;2024-03-08T14:05:38;11.17;;;7.93;;
23123;SDS011;11731;48.592;8.858;2024-03-08T14:08:23;10.00;;;7.50;;
23123;SDS011;11731;48.592;8.858;2024-03-08T14:10:52;11.40;;;7.50;;
23123;SDS011;11731;48.592;8.858;2024-03-08T14:17:07;9.63;;;6.50;;
23123;SDS011;11731;48.592;8.858;2024-03-08T14:20:12;11.53;;;7.90;;
23123;SDS011;11731;48.592;8.858;2024-03-08T14:22:40;10.00;;;7.70;;
23123;SDS011;11731;48.592;8.858;2024-03-08T14:25:07;10.33;;;7.07;;
23123;SDS011;11731;48.592;8.858;2024-03-08T14:27:42;12.27;;;8.40;;
23123;SDS011;11731;48.592;8.858;2024-03-08T14:30:09;10.57;;;7.60;;
23123;SDS011;11731;48.592;8.858;2024-03-08T14:32:36;11.90;;;7.53;;
23123;SDS011;11731;48.592;8.858;2024-03-08T14:35:04;10.77;;;7.13;;
23123;SDS011;11731;48.592;8.858;2024-03-08T14:37:31;10.70;;;7.33;;
23123;SDS011;11731;48.592;8.858;2024-03-08T14:40:00;11.57;;;7.83;;
23123;SDS011;11731;48.592;8.858;2024-03-08T14:42:30;11.20;;;8.17;;
23123;SDS011;11731;48.592;8.858;2024-03-08T14:45:04;11.43;;;7.83;;
23123;SDS011;11731;48.592;8.858;2024-03-08T14:47:32;10.93;;;7.40;;
23123;SDS011;11731;48.592;8.858;2024-03-08T14:50:29;9.53;;;7.50;;
23123;SDS011;11731;48.592;8.858;2024-03-08T14:52:57;10.67;;;7.27;;
23123;SDS011;11731;48.592;8.858;2024-03-08T14:59:26;11.83;;;8.07;;
23123;SDS011;11731;48.592;8.858;2024-03-08T15:01:49;11.23;;;7.60;;
23123;SDS011;11731;48.592;8.858;2024-03-08T15:04:16;9.87;;;6.73;;
23123;SDS011;11731;48.592;8.858;2024-03-08T15:09:27;10.03;;;7.63;;
23123;SDS011;11731;48.592;8.858;2024-03-08T15:12:05;10.83;;;7.10;;
23123;SDS011;11731;48.592;8.858;2024-03-08T15:14:33;11.70;;;8.53;;
23123;SDS011;11731;48.592;8.858;2024-03-08T15:16:59;13.97;;;8.60;;
23123;SDS011;11731;48.592;8.858;2024-03-08T15:19:32;10.90;;;8.00;;
23123;SDS011;11731;48.592;8.858;2024-03-08T15:21:59;14.87;;;8.27;;
23123;SDS011;11731;48.592;8.858;2024-03-08T15:24:26;17.00;;;8.03;;
23123;SDS011;11731;48.592;8.858;2024-03-08T15:32:58;12.30;;;8.60;;
23123;SDS011;11731;48.592;8.858;2024-03-08T15:35:28;11.23;;;8.30;;
23123;SDS011;11731;48.592;8.858;2024-03-08T15:37:57;12.50;;;7.87;;
23123;SDS011;11731;48.592;8.858;2024-03-08T15:40:27;12.27;;;8.60;;
23123;SDS011;11731;48.592;8.858;2024-03-08T15:46:03;14.73;;;8.60;;
23123;SDS011;11731;48.592;8.858;2024-03-08T15:48:30;14.47;;;8.60;;
23123;SDS011;11731;48.592;8.858;2024-03-08T15:51:00;13.67;;;8.70;;
23123;SDS011;11731;48.592;8.858;2024-03-08T15:56:37;11.63;;;8.40;;
23123;SDS011;11731;48.592;8.858;2024-03-08T15:59:04;12.97;;;8.87;;
23123;SDS011;11731;48.592;8.858;2024-03-08T16:01:34;13.10;;;8.30;;
23123;SDS011;11731;48.592;8.858;2024-03-08T16:04:01;15.03;;;8.57;;
23123;SDS011;11731;48.592;8.858;2024-03-08T16:06:29;12.67;;;8.60;;
23123;SDS011;11731;48.592;8.858;2024-03-08T16:08:56;12.20;;;8.37;;
23123;SDS011;11731;48.592;8.858;2024-03-08T16:11:24;11.60;;;8.60;;
23123;SDS011;11731;48.592;8.858;2024-03-08T16:13:52;14.17;;;8.77;;
23123;SDS011;11731;48.592;8.858;2024-03-08T16:16:19;13.30;;;9.07;;
23123;SDS011;11731;48.592;8.858;2024-03-08T16:21:26;16.57;;;9.07;;
23123;SDS011;11731;48.592;8.858;2024-03-08T16:23:53;12.67;;;8.33;;
23123;SDS011;11731;48.592;8.858;2024-03-08T16:26:20;17.13;;;9.33;;
23123;SDS011;11731;48.592;8.858;2024-03-08T16:28:51;12.23;;;8.27;;
23123;SDS011;11731;48.592;8.858;2024-03-08T16:31:33;13.73;;;8.70;;
23123;SDS011;11731;48.592;8.858;2024-03-08T16:34:08;13.37;;;8.57;;
23123;SDS011;11731;48.592;8.858;2024-03-08T16:36:36;11.57;;;8.17;;
23123;SDS011;11731;48.592;8.858;2024-03-08T16:39:05;15.50;;;9.17;;
23123;SDS011;11731;48.592;8.858;2024-03-08T16:41:34;15.87;;;8.90;;